sensor_id;sensor_type;location;lat;lon;timestamp;P1;durP1;ratioP1;P2;durP2;ratioP2
24233;SDS011;12365;43.554;1.388;2024-01-27T00:02:19;37.03;;;24.13;;
24233;SDS011;12365;43.554;1.388;2024-01-27T00:04:44;38.58;;;25.25;;
24233;SDS011;12365;43.554;1.388;2024-01-27T00:07:09;41.00;;;24.73;;
24233;SDS011;12365;43.554;1.388;2024-01-27T00:09:35;38.25;;;25.05;;
24233;SDS011;12365;43.554;1.388;2024-01-27T00:12:00;34.92;;;24.02;;
24233;SDS011;12365;43.554;1.388;2024-01-27T00:14:26;34.65;;;23.48;;
24233;SDS011;12365;43.554;1.388;2024-01-27T00:16:52;37.17;;;24.02;;
24233;SDS011;12365;43.554;1.388;2024-01-27T00:19:17;38.67;;;23.48;;
24233;SDS011;12365;43.554;1.388;2024-01-27T00:21:43;38.42;;;23.77;;
24233;SDS011;12365;43.554;1.388;2024-01-27T00:24:08;40.78;;;23.17;;
24233;SDS011;12365;43.554;1.388;2024-01-27T00:26:33;37.60;;;23.50;;
24233;SDS011;12365;43.554;1.388;2024-01-27T00:28:59;37.17;;;23.73;;
24233;SDS011;12365;43.554;1.388;2024-01-27T00:31:24;34.20;;;22.38;;
24233;SDS011;12365;43.554;1.388;2024-01-27T00:33:49;37.80;;;22.55;;
24233;SDS011;12365;43.554;1.388;2024-01-27T00:36:15;35.90;;;23.52;;
24233;SDS011;12365;43.554;1.388;2024-01-27T00:38:40;40.40;;;23.00;;
24233;SDS011;12365;43.554;1.388;2024-01-27T00:41:06;40.67;;;22.92;;
24233;SDS011;12365;43.554;1.388;2024-01-27T00:43:31;34.15;;;21.90;;
24233;SDS011;12365;43.554;1.388;2024-01-27T00:45:56;42.53;;;22.38;;
24233;SDS011;12365;43.554;1.388;2024-01-27T00:48:22;41.50;;;23.45;;
24233;SDS011;12365;43.554;1.388;2024-01-27T00:50:47;35.88;;;22.52;;
24233;SDS011;12365;43.554;1.388;2024-01-27T00:53:13;42.78;;;22.20;;
24233;SDS011;12365;43.554;1.388;2024-01-27T00:55:38;43.92;;;21.90;;
24233;SDS011;12365;43.554;1.388;2024-01-27T00:58:04;46.35;;;22.40;;
24233;SDS011;12365;43.554;1.388;2024-01-27T01:00:29;53.50;;;22.77;;
24233;SDS011;12365;43.554;1.388;2024-01-27T01:02:54;48.17;;;22.50;;
24233;SDS011;12365;43.554;1.388;2024-01-27T01:05:20;42.05;;;22.92;;
24233;SDS011;12365;43.554;1.388;2024-01-27T01:07:45;42.05;;;23.10;;
24233;SDS011;12365;43.554;1.388;2024-01-27T01:10:11;40.65;;;21.88;;
24233;SDS011;12365;43.554;1.388;2024-01-27T01:12:36;54.45;;;22.27;;
24233;SDS011;12365;43.554;1.388;2024-01-27T01:15:02;42.67;;;20.98;;
24233;SDS011;12365;43.554;1.388;2024-01-27T01:17:27;42.53;;;20.67;;
24233;SDS011;12365;43.554;1.388;2024-01-27T01:19:52;39.17;;;22.45;;
24233;SDS011;12365;43.554;1.388;2024-01-27T01:22:18;37.00;;;20.98;;
24233;SDS011;12365;43.554;1.388;2024-01-27T01:24:43;38.10;;;19.75;;
24233;SDS011;12365;43.554;1.388;2024-01-27T01:27:09;48.63;;;18.90;;
24233;SDS011;12365;43.554;1.388;2024-01-27T01:29:34;49.17;;;20.50;;
24233;SDS011;12365;43.554;1.388;2024-01-27T01:32:00;70.72;;;21.35;;
24233;SDS011;12365;43.554;1.388;2024-01-27T01:34:28;60.60;;;21.10;;
24233;SDS011;12365;43.554;1.388;2024-01-27T01:36:53;91.10;;;20.73;;
24233;SDS011;12365;43.554;1.388;2024-01-27T01:39:19;62.90;;;20.40;;
24233;SDS011;12365;43.554;1.388;2024-01-27T01:41:46;66.72;;;19.13;;
24233;SDS011;12365;43.554;1.388;2024-01-27T01:44:11;61.67;;;18.65;;
24233;SDS011;12365;43.554;1.388;2024-01-27T01:46:36;63.97;;;18.20;;
24233;SDS011;12365;43.554;1.388;2024-01-27T01:49:02;58.00;;;17.30;;
24233;SDS011;12365;43.554;1.388;2024-01-27T01:51:28;98.95;;;17.40;;
24233;SDS011;12365;43.554;1.388;2024-01-27T01:53:54;55.70;;;18.05;;
24233;SDS011;12365;43.554;1.388;2024-01-27T01:56:23;57.10;;;17.00;;
24233;SDS011;12365;43.554;1.388;2024-01-27T01:58:48;54.53;;;16.40;;
24233;SDS011;12365;43.554;1.388;2024-01-27T02:01:14;55.10;;;15.48;;
24233;SDS011;12365;43.554;1.388;2024-01-27T02:03:40;30.13;;;14.23;;
24233;SDS011;12365;43.554;1.388;2024-01-27T02:06:16;28.73;;;14.40;;
24233;SDS011;12365;43.554;1.388;2024-01-27T02:08:42;32.25;;;14.90;;
24233;SDS011;12365;43.554;1.388;2024-01-27T02:11:07;43.80;;;14.00;;
24233;SDS011;12365;43.554;1.388;2024-01-27T02:13:32;43.90;;;13.82;;
24233;SDS011;12365;43.554;1.388;2024-01-27T02:15:58;63.80;;;12.80;;
24233;SDS011;12365;43.554;1.388;2024-01-27T02:18:23;74.97;;;13.90;;
24233;SDS011;12365;43.554;1.388;2024-01-27T02:20:49;50.67;;;13.93;;
24233;SDS011;12365;43.554;1.388;2024-01-27T02:23:14;70.15;;;12.75;;
24233;SDS011;12365;43.554;1.388;2024-01-27T02:25:40;52.45;;;12.73;;
24233;SDS011;12365;43.554;1.388;2024-01-27T02:28:05;54.03;;;13.40;;
24233;SDS011;12365;43.554;1.388;2024-01-27T02:30:30;52.83;;;12.93;;
24233;SDS011;12365;43.554;1.388;2024-01-27T02:32:57;20.27;;;11.32;;
24233;SDS011;12365;43.554;1.388;2024-01-27T02:35:23;23.20;;;11.27;;
24233;SDS011;12365;43.554;1.388;2024-01-27T02:37:49;22.90;;;10.73;;
24233;SDS011;12365;43.554;1.388;2024-01-27T02:40:15;35.60;;;11.68;;
24233;SDS011;12365;43.554;1.388;2024-01-27T02:42:41;33.53;;;11.63;;
24233;SDS011;12365;43.554;1.388;2024-01-27T02:45:10;60.22;;;12.00;;
24233;SDS011;12365;43.554;1.388;2024-01-27T02:47:38;44.83;;;11.85;;
24233;SDS011;12365;43.554;1.388;2024-01-27T02:50:04;88.22;;;12.07;;
24233;SDS011;12365;43.554;1.388;2024-01-27T02:52:31;41.53;;;13.20;;
24233;SDS011;12365;43.554;1.388;2024-01-27T02:54:57;27.58;;;13.32;;
24233;SDS011;12365;43.554;1.388;2024-01-27T02:57:23;43.53;;;11.98;;
24233;SDS011;12365;43.554;1.388;2024-01-27T02:59:48;25.63;;;12.00;;
24233;SDS011;12365;43.554;1.388;2024-01-27T03:02:14;36.35;;;17.60;;
24233;SDS011;12365;43.554;1.388;2024-01-27T03:04:40;81.47;;;12.82;;
24233;SDS011;12365;43.554;1.388;2024-01-27T03:07:06;29.38;;;12.38;;
24233;SDS011;12365;43.554;1.388;2024-01-27T03:09:31;50.20;;;13.32;;
24233;SDS011;12365;43.554;1.388;2024-01-27T03:11:57;50.97;;;12.82;;
24233;SDS011;12365;43.554;1.388;2024-01-27T03:14:22;85.35;;;13.35;;
24233;SDS011;12365;43.554;1.388;2024-01-27T03:16:48;63.75;;;14.65;;
24233;SDS011;12365;43.554;1.388;2024-01-27T03:19:13;81.47;;;15.75;;
24233;SDS011;12365;43.554;1.388;2024-01-27T03:21:38;112.30;;;13.48;;
24233;SDS011;12365;43.554;1.388;2024-01-27T03:24:04;77.30;;;14.32;;
24233;SDS011;12365;43.554;1.388;2024-01-27T03:26:30;37.15;;;13.38;;
24233;SDS011;12365;43.554;1.388;2024-01-27T03:28:55;45.97;;;13.10;;
24233;SDS011;12365;43.554;1.388;2024-01-27T03:31:20;76.68;;;13.13;;
24233;SDS011;12365;43.554;1.388;2024-01-27T03:33:46;48.28;;;12.50;;
24233;SDS011;12365;43.554;1.388;2024-01-27T03:36:12;98.32;;;14.10;;
24233;SDS011;12365;43.554;1.388;2024-01-27T03:38:38;80.10;;;13.13;;
24233;SDS011;12365;43.554;1.388;2024-01-27T03:41:05;72.60;;;12.55;;
24233;SDS011;12365;43.554;1.388;2024-01-27T03:43:31;77.95;;;12.45;;
24233;SDS011;12365;43.554;1.388;2024-01-27T03:45:57;89.43;;;12.35;;
24233;SDS011;12365;43.554;1.388;2024-01-27T03:48:23;47.65;;;11.80;;
24233;SDS011;12365;43.554;1.388;2024-01-27T03:50:48;132.25;;;12.30;;
24233;SDS011;12365;43.554;1.388;2024-01-27T03:53:14;90.22;;;11.05;;
24233;SDS011;12365;43.554;1.388;2024-01-27T03:55:39;214.98;;;10.85;;
24233;SDS011;12365;43.554;1.388;2024-01-27T03:58:04;132.90;;;10.85;;
24233;SDS011;12365;43.554;1.388;2024-01-27T04:00:30;72.82;;;10.13;;
24233;SDS011;12365;43.554;1.388;2024-01-27T04:02:58;75.28;;;10.32;;
24233;SDS011;12365;43.554;1.388;2024-01-27T04:05:24;98.72;;;9.82;;
24233;SDS011;12365;43.554;1.388;2024-01-27T04:07:50;127.65;;;10.45;;
24233;SDS011;12365;43.554;1.388;2024-01-27T04:10:16;89.18;;;10.38;;
24233;SDS011;12365;43.554;1.388;2024-01-27T04:12:43;71.15;;;9.15;;
24233;SDS011;12365;43.554;1.388;2024-01-27T04:15:08;93.78;;;9.75;;
24233;SDS011;12365;43.554;1.388;2024-01-27T04:17:34;54.65;;;8.68;;
24233;SDS011;12365;43.554;1.388;2024-01-27T04:20:00;54.63;;;8.98;;
24233;SDS011;12365;43.554;1.388;2024-01-27T04:22:26;140.55;;;8.18;;
24233;SDS011;12365;43.554;1.388;2024-01-27T04:24:51;166.85;;;8.38;;
24233;SDS011;12365;43.554;1.388;2024-01-27T04:27:16;149.90;;;8.65;;
24233;SDS011;12365;43.554;1.388;2024-01-27T04:29:42;52.25;;;7.90;;
24233;SDS011;12365;43.554;1.388;2024-01-27T04:32:07;95.18;;;7.40;;
24233;SDS011;12365;43.554;1.388;2024-01-27T04:34:32;98.88;;;7.55;;
24233;SDS011;12365;43.554;1.388;2024-01-27T04:36:58;77.00;;;7.32;;
24233;SDS011;12365;43.554;1.388;2024-01-27T04:39:23;79.32;;;7.75;;
24233;SDS011;12365;43.554;1.388;2024-01-27T04:41:49;83.28;;;7.22;;
24233;SDS011;12365;43.554;1.388;2024-01-27T04:44:14;108.90;;;6.63;;
24233;SDS011;12365;43.554;1.388;2024-01-27T04:46:40;76.18;;;6.63;;
24233;SDS011;12365;43.554;1.388;2024-01-27T04:49:05;67.53;;;6.15;;
24233;SDS011;12365;43.554;1.388;2024-01-27T04:51:30;156.60;;;7.05;;
24233;SDS011;12365;43.554;1.388;2024-01-27T04:53:56;77.00;;;5.63;;
24233;SDS011;12365;43.554;1.388;2024-01-27T04:56:21;144.70;;;6.60;;
24233;SDS011;12365;43.554;1.388;2024-01-27T04:58:46;114.18;;;6.40;;
24233;SDS011;12365;43.554;1.388;2024-01-27T05:01:12;202.20;;;7.03;;
24233;SDS011;12365;43.554;1.388;2024-01-27T05:03:37;138.60;;;6.53;;
24233;SDS011;12365;43.554;1.388;2024-01-27T05:06:03;64.95;;;6.38;;
24233;SDS011;12365;43.554;1.388;2024-01-27T05:08:29;122.57;;;6.80;;
24233;SDS011;12365;43.554;1.388;2024-01-27T05:10:54;52.83;;;6.70;;
24233;SDS011;12365;43.554;1.388;2024-01-27T05:13:20;96.03;;;7.07;;
24233;SDS011;12365;43.554;1.388;2024-01-27T05:15:45;102.43;;;6.60;;
24233;SDS011;12365;43.554;1.388;2024-01-27T05:18:11;94.15;;;6.05;;
24233;SDS011;12365;43.554;1.388;2024-01-27T05:20:36;166.18;;;7.00;;
24233;SDS011;12365;43.554;1.388;2024-01-27T05:23:02;154.82;;;7.68;;
24233;SDS011;12365;43.554;1.388;2024-01-27T05:25:27;60.65;;;6.70;;
24233;SDS011;12365;43.554;1.388;2024-01-27T05:27:52;122.63;;;7.82;;
24233;SDS011;12365;43.554;1.388;2024-01-27T05:30:18;131.80;;;7.22;;
24233;SDS011;12365;43.554;1.388;2024-01-27T05:32:43;107.90;;;7.55;;
24233;SDS011;12365;43.554;1.388;2024-01-27T05:35:08;116.20;;;7.40;;
24233;SDS011;12365;43.554;1.388;2024-01-27T05:37:35;112.60;;;7.60;;
24233;SDS011;12365;43.554;1.388;2024-01-27T05:40:00;148.00;;;7.50;;
24233;SDS011;12365;43.554;1.388;2024-01-27T05:42:27;84.03;;;7.07;;
24233;SDS011;12365;43.554;1.388;2024-01-27T05:44:52;148.07;;;8.32;;
24233;SDS011;12365;43.554;1.388;2024-01-27T05:47:17;69.72;;;6.85;;
24233;SDS011;12365;43.554;1.388;2024-01-27T05:49:43;51.42;;;7.35;;
24233;SDS011;12365;43.554;1.388;2024-01-27T05:52:08;45.55;;;6.75;;
24233;SDS011;12365;43.554;1.388;2024-01-27T05:54:33;38.28;;;6.82;;
24233;SDS011;12365;43.554;1.388;2024-01-27T05:56:59;68.55;;;6.78;;
24233;SDS011;12365;43.554;1.388;2024-01-27T05:59:25;70.70;;;8.68;;
24233;SDS011;12365;43.554;1.388;2024-01-27T06:01:50;43.47;;;6.47;;
24233;SDS011;12365;43.554;1.388;2024-01-27T06:04:16;61.35;;;7.00;;
24233;SDS011;12365;43.554;1.388;2024-01-27T06:06:41;31.20;;;6.70;;
24233;SDS011;12365;43.554;1.388;2024-01-27T06:09:07;36.42;;;6.95;;
24233;SDS011;12365;43.554;1.388;2024-01-27T06:11:39;49.25;;;6.03;;
24233;SDS011;12365;43.554;1.388;2024-01-27T06:14:04;28.50;;;6.72;;
24233;SDS011;12365;43.554;1.388;2024-01-27T06:16:29;59.90;;;6.07;;
24233;SDS011;12365;43.554;1.388;2024-01-27T06:18:55;127.15;;;6.95;;
24233;SDS011;12365;43.554;1.388;2024-01-27T06:21:21;147.07;;;6.30;;
24233;SDS011;12365;43.554;1.388;2024-01-27T06:23:46;106.40;;;6.03;;
24233;SDS011;12365;43.554;1.388;2024-01-27T06:26:12;48.80;;;5.93;;
24233;SDS011;12365;43.554;1.388;2024-01-27T06:28:39;78.88;;;5.65;;
24233;SDS011;12365;43.554;1.388;2024-01-27T06:31:04;100.10;;;5.90;;
24233;SDS011;12365;43.554;1.388;2024-01-27T06:33:31;80.20;;;5.72;;
24233;SDS011;12365;43.554;1.388;2024-01-27T06:35:57;77.43;;;5.40;;
24233;SDS011;12365;43.554;1.388;2024-01-27T06:38:22;34.85;;;5.03;;
24233;SDS011;12365;43.554;1.388;2024-01-27T06:40:48;68.07;;;5.50;;
24233;SDS011;12365;43.554;1.388;2024-01-27T06:43:13;101.18;;;5.72;;
24233;SDS011;12365;43.554;1.388;2024-01-27T06:45:39;94.50;;;5.53;;
24233;SDS011;12365;43.554;1.388;2024-01-27T06:48:05;58.08;;;5.60;;
24233;SDS011;12365;43.554;1.388;2024-01-27T06:50:31;94.95;;;5.20;;
24233;SDS011;12365;43.554;1.388;2024-01-27T06:52:57;45.58;;;5.18;;
24233;SDS011;12365;43.554;1.388;2024-01-27T06:55:22;104.28;;;5.65;;
24233;SDS011;12365;43.554;1.388;2024-01-27T06:57:48;116.03;;;5.57;;
24233;SDS011;12365;43.554;1.388;2024-01-27T07:00:13;204.13;;;7.28;;
24233;SDS011;12365;43.554;1.388;2024-01-27T07:02:39;129.32;;;5.18;;
24233;SDS011;12365;43.554;1.388;2024-01-27T07:05:08;118.78;;;4.65;;
24233;SDS011;12365;43.554;1.388;2024-01-27T07:07:34;135.80;;;9.05;;
24233;SDS011;12365;43.554;1.388;2024-01-27T07:10:00;67.40;;;5.97;;
24233;SDS011;12365;43.554;1.388;2024-01-27T07:12:25;69.72;;;6.07;;
24233;SDS011;12365;43.554;1.388;2024-01-27T07:14:50;123.45;;;4.68;;
24233;SDS011;12365;43.554;1.388;2024-01-27T07:17:17;10.27;;;3.63;;
24233;SDS011;12365;43.554;1.388;2024-01-27T07:19:42;53.05;;;3.70;;
24233;SDS011;12365;43.554;1.388;2024-01-27T07:22:08;56.38;;;4.60;;
24233;SDS011;12365;43.554;1.388;2024-01-27T07:24:33;59.38;;;8.90;;
24233;SDS011;12365;43.554;1.388;2024-01-27T07:27:02;33.65;;;3.67;;
24233;SDS011;12365;43.554;1.388;2024-01-27T07:29:28;6.78;;;3.33;;
24233;SDS011;12365;43.554;1.388;2024-01-27T07:31:54;56.72;;;3.13;;
24233;SDS011;12365;43.554;1.388;2024-01-27T07:34:19;33.55;;;2.88;;
24233;SDS011;12365;43.554;1.388;2024-01-27T07:36:45;90.80;;;3.97;;
24233;SDS011;12365;43.554;1.388;2024-01-27T07:39:10;57.42;;;3.20;;
24233;SDS011;12365;43.554;1.388;2024-01-27T07:41:36;101.18;;;4.30;;
24233;SDS011;12365;43.554;1.388;2024-01-27T07:44:08;63.50;;;7.05;;
24233;SDS011;12365;43.554;1.388;2024-01-27T07:46:35;109.68;;;4.05;;
24233;SDS011;12365;43.554;1.388;2024-01-27T07:49:01;99.00;;;3.55;;
24233;SDS011;12365;43.554;1.388;2024-01-27T07:51:27;75.65;;;6.40;;
24233;SDS011;12365;43.554;1.388;2024-01-27T07:53:53;107.00;;;10.95;;
24233;SDS011;12365;43.554;1.388;2024-01-27T07:56:18;165.85;;;9.02;;
24233;SDS011;12365;43.554;1.388;2024-01-27T07:58:43;105.05;;;5.65;;
24233;SDS011;12365;43.554;1.388;2024-01-27T08:01:09;49.92;;;4.13;;
24233;SDS011;12365;43.554;1.388;2024-01-27T08:03:34;27.73;;;2.70;;
24233;SDS011;12365;43.554;1.388;2024-01-27T08:06:03;108.70;;;4.75;;
24233;SDS011;12365;43.554;1.388;2024-01-27T08:08:29;99.05;;;3.75;;
24233;SDS011;12365;43.554;1.388;2024-01-27T08:10:55;51.72;;;3.60;;
24233;SDS011;12365;43.554;1.388;2024-01-27T08:13:20;117.35;;;4.13;;
24233;SDS011;12365;43.554;1.388;2024-01-27T08:15:46;136.18;;;4.43;;
24233;SDS011;12365;43.554;1.388;2024-01-27T08:18:11;118.60;;;3.70;;
24233;SDS011;12365;43.554;1.388;2024-01-27T08:20:37;50.13;;;3.50;;
24233;SDS011;12365;43.554;1.388;2024-01-27T08:23:02;19.95;;;3.45;;
24233;SDS011;12365;43.554;1.388;2024-01-27T08:25:28;32.92;;;2.78;;
24233;SDS011;12365;43.554;1.388;2024-01-27T08:27:53;78.80;;;3.10;;
24233;SDS011;12365;43.554;1.388;2024-01-27T08:30:18;75.38;;;4.63;;
24233;SDS011;12365;43.554;1.388;2024-01-27T08:32:44;76.60;;;3.42;;
24233;SDS011;12365;43.554;1.388;2024-01-27T08:35:09;85.63;;;3.50;;
24233;SDS011;12365;43.554;1.388;2024-01-27T08:37:35;79.57;;;3.40;;
24233;SDS011;12365;43.554;1.388;2024-01-27T08:40:04;91.78;;;3.50;;
24233;SDS011;12365;43.554;1.388;2024-01-27T08:42:30;83.35;;;3.38;;
24233;SDS011;12365;43.554;1.388;2024-01-27T08:44:56;62.25;;;3.20;;
24233;SDS011;12365;43.554;1.388;2024-01-27T08:47:21;148.20;;;3.88;;
24233;SDS011;12365;43.554;1.388;2024-01-27T08:49:46;132.88;;;3.75;;
24233;SDS011;12365;43.554;1.388;2024-01-27T08:52:12;79.00;;;3.90;;
24233;SDS011;12365;43.554;1.388;2024-01-27T08:54:37;130.30;;;4.07;;
24233;SDS011;12365;43.554;1.388;2024-01-27T08:57:03;96.65;;;4.10;;
24233;SDS011;12365;43.554;1.388;2024-01-27T08:59:29;117.82;;;4.45;;
24233;SDS011;12365;43.554;1.388;2024-01-27T09:01:54;84.30;;;2.97;;
24233;SDS011;12365;43.554;1.388;2024-01-27T09:04:20;154.02;;;3.92;;
24233;SDS011;12365;43.554;1.388;2024-01-27T09:06:45;146.40;;;4.05;;
24233;SDS011;12365;43.554;1.388;2024-01-27T09:09:10;39.50;;;2.38;;
24233;SDS011;12365;43.554;1.388;2024-01-27T09:11:37;106.20;;;3.22;;
24233;SDS011;12365;43.554;1.388;2024-01-27T09:14:02;122.25;;;3.33;;
24233;SDS011;12365;43.554;1.388;2024-01-27T09:16:30;52.53;;;2.05;;
24233;SDS011;12365;43.554;1.388;2024-01-27T09:18:55;87.53;;;2.75;;
24233;SDS011;12365;43.554;1.388;2024-01-27T09:21:21;78.25;;;2.97;;
24233;SDS011;12365;43.554;1.388;2024-01-27T09:23:52;83.93;;;2.63;;
24233;SDS011;12365;43.554;1.388;2024-01-27T09:26:18;34.83;;;2.40;;
24233;SDS011;12365;43.554;1.388;2024-01-27T09:28:44;49.20;;;2.30;;
24233;SDS011;12365;43.554;1.388;2024-01-27T09:31:11;33.42;;;2.40;;
24233;SDS011;12365;43.554;1.388;2024-01-27T09:33:36;58.58;;;3.30;;
24233;SDS011;12365;43.554;1.388;2024-01-27T09:36:02;93.13;;;2.53;;
24233;SDS011;12365;43.554;1.388;2024-01-27T09:38:28;86.20;;;3.70;;
24233;SDS011;12365;43.554;1.388;2024-01-27T09:40:54;89.63;;;3.28;;
24233;SDS011;12365;43.554;1.388;2024-01-27T09:43:19;80.40;;;2.95;;
24233;SDS011;12365;43.554;1.388;2024-01-27T09:45:46;73.90;;;2.60;;
24233;SDS011;12365;43.554;1.388;2024-01-27T09:48:12;42.78;;;2.63;;
24233;SDS011;12365;43.554;1.388;2024-01-27T09:50:41;70.20;;;2.72;;
24233;SDS011;12365;43.554;1.388;2024-01-27T09:53:06;44.42;;;2.60;;
24233;SDS011;12365;43.554;1.388;2024-01-27T09:55:34;58.25;;;3.25;;
24233;SDS011;12365;43.554;1.388;2024-01-27T09:57:59;67.72;;;2.95;;
24233;SDS011;12365;43.554;1.388;2024-01-27T10:00:25;92.05;;;3.53;;
24233;SDS011;12365;43.554;1.388;2024-01-27T10:02:52;79.97;;;2.85;;
24233;SDS011;12365;43.554;1.388;2024-01-27T10:05:19;16.98;;;2.38;;
24233;SDS011;12365;43.554;1.388;2024-01-27T10:07:45;65.47;;;2.42;;
24233;SDS011;12365;43.554;1.388;2024-01-27T10:10:10;18.70;;;3.67;;
24233;SDS011;12365;43.554;1.388;2024-01-27T10:12:40;88.30;;;2.90;;
24233;SDS011;12365;43.554;1.388;2024-01-27T10:15:18;26.67;;;2.60;;
24233;SDS011;12365;43.554;1.388;2024-01-27T10:17:47;7.57;;;2.35;;
24233;SDS011;12365;43.554;1.388;2024-01-27T10:20:13;17.20;;;3.47;;
24233;SDS011;12365;43.554;1.388;2024-01-27T10:22:40;8.60;;;2.40;;
24233;SDS011;12365;43.554;1.388;2024-01-27T10:25:07;32.17;;;2.50;;
24233;SDS011;12365;43.554;1.388;2024-01-27T10:27:34;2.70;;;2.10;;
24233;SDS011;12365;43.554;1.388;2024-01-27T10:30:00;4.78;;;1.92;;
24233;SDS011;12365;43.554;1.388;2024-01-27T10:32:25;7.22;;;1.75;;
24233;SDS011;12365;43.554;1.388;2024-01-27T10:35:06;32.17;;;2.63;;
24233;SDS011;12365;43.554;1.388;2024-01-27T10:37:36;12.98;;;2.60;;
24233;SDS011;12365;43.554;1.388;2024-01-27T10:40:08;17.80;;;2.65;;
24233;SDS011;12365;43.554;1.388;2024-01-27T10:42:34;13.45;;;2.45;;
24233;SDS011;12365;43.554;1.388;2024-01-27T10:45:01;9.30;;;2.40;;
24233;SDS011;12365;43.554;1.388;2024-01-27T10:47:29;5.00;;;2.08;;
24233;SDS011;12365;43.554;1.388;2024-01-27T10:49:56;23.52;;;2.90;;
24233;SDS011;12365;43.554;1.388;2024-01-27T10:52:34;49.88;;;3.10;;
24233;SDS011;12365;43.554;1.388;2024-01-27T10:55:08;6.57;;;3.08;;
24233;SDS011;12365;43.554;1.388;2024-01-27T10:57:36;3.15;;;2.58;;
24233;SDS011;12365;43.554;1.388;2024-01-27T11:00:05;3.03;;;2.20;;
24233;SDS011;12365;43.554;1.388;2024-01-27T11:02:32;7.43;;;1.77;;
24233;SDS011;12365;43.554;1.388;2024-01-27T11:04:58;2.92;;;2.08;;
24233;SDS011;12365;43.554;1.388;2024-01-27T11:07:25;4.10;;;2.50;;
24233;SDS011;12365;43.554;1.388;2024-01-27T11:09:51;2.65;;;2.00;;
24233;SDS011;12365;43.554;1.388;2024-01-27T11:12:18;4.38;;;2.20;;
24233;SDS011;12365;43.554;1.388;2024-01-27T11:14:49;6.45;;;2.45;;
24233;SDS011;12365;43.554;1.388;2024-01-27T11:17:16;9.00;;;3.30;;
24233;SDS011;12365;43.554;1.388;2024-01-27T11:19:42;7.38;;;3.75;;
24233;SDS011;12365;43.554;1.388;2024-01-27T11:22:17;4.57;;;3.33;;
24233;SDS011;12365;43.554;1.388;2024-01-27T11:24:53;10.05;;;2.83;;
24233;SDS011;12365;43.554;1.388;2024-01-27T11:27:36;3.47;;;2.67;;
24233;SDS011;12365;43.554;1.388;2024-01-27T11:30:03;17.27;;;3.72;;
24233;SDS011;12365;43.554;1.388;2024-01-27T11:32:30;5.43;;;4.10;;
24233;SDS011;12365;43.554;1.388;2024-01-27T11:34:55;3.13;;;2.35;;
24233;SDS011;12365;43.554;1.388;2024-01-27T11:37:21;6.15;;;2.60;;
24233;SDS011;12365;43.554;1.388;2024-01-27T11:39:50;3.15;;;2.85;;
24233;SDS011;12365;43.554;1.388;2024-01-27T11:42:16;2.83;;;2.53;;
24233;SDS011;12365;43.554;1.388;2024-01-27T11:44:42;3.33;;;2.70;;
24233;SDS011;12365;43.554;1.388;2024-01-27T11:47:15;3.58;;;2.33;;
24233;SDS011;12365;43.554;1.388;2024-01-27T11:49:51;3.20;;;2.88;;
24233;SDS011;12365;43.554;1.388;2024-01-27T11:52:18;5.35;;;3.30;;
24233;SDS011;12365;43.554;1.388;2024-01-27T11:54:44;3.47;;;2.90;;
24233;SDS011;12365;43.554;1.388;2024-01-27T11:57:10;3.40;;;3.10;;
24233;SDS011;12365;43.554;1.388;2024-01-27T11:59:35;3.90;;;3.28;;
24233;SDS011;12365;43.554;1.388;2024-01-27T12:02:01;5.43;;;4.05;;
24233;SDS011;12365;43.554;1.388;2024-01-27T12:04:27;5.28;;;4.03;;
24233;SDS011;12365;43.554;1.388;2024-01-27T12:06:53;5.70;;;3.17;;
24233;SDS011;12365;43.554;1.388;2024-01-27T12:09:18;5.20;;;3.00;;
24233;SDS011;12365;43.554;1.388;2024-01-27T12:11:44;5.57;;;3.35;;
24233;SDS011;12365;43.554;1.388;2024-01-27T12:14:11;3.85;;;3.20;;
24233;SDS011;12365;43.554;1.388;2024-01-27T12:16:37;6.35;;;3.40;;
24233;SDS011;12365;43.554;1.388;2024-01-27T12:19:02;5.63;;;3.50;;
24233;SDS011;12365;43.554;1.388;2024-01-27T12:21:28;3.65;;;3.00;;
24233;SDS011;12365;43.554;1.388;2024-01-27T12:23:54;5.78;;;3.45;;
24233;SDS011;12365;43.554;1.388;2024-01-27T12:26:21;5.00;;;3.50;;
24233;SDS011;12365;43.554;1.388;2024-01-27T12:28:48;3.83;;;3.33;;
24233;SDS011;12365;43.554;1.388;2024-01-27T12:31:14;5.38;;;3.50;;
24233;SDS011;12365;43.554;1.388;2024-01-27T12:33:47;3.97;;;3.30;;
24233;SDS011;12365;43.554;1.388;2024-01-27T12:36:14;4.60;;;3.50;;
24233;SDS011;12365;43.554;1.388;2024-01-27T12:38:40;5.68;;;3.20;;
24233;SDS011;12365;43.554;1.388;2024-01-27T12:41:05;4.15;;;3.70;;
24233;SDS011;12365;43.554;1.388;2024-01-27T12:43:30;26.90;;;15.32;;
24233;SDS011;12365;43.554;1.388;2024-01-27T12:45:56;8.30;;;4.53;;
24233;SDS011;12365;43.554;1.388;2024-01-27T12:48:21;4.75;;;3.85;;
24233;SDS011;12365;43.554;1.388;2024-01-27T12:50:47;7.65;;;4.10;;
24233;SDS011;12365;43.554;1.388;2024-01-27T12:53:12;4.40;;;3.50;;
24233;SDS011;12365;43.554;1.388;2024-01-27T12:55:38;9.02;;;6.43;;
24233;SDS011;12365;43.554;1.388;2024-01-27T12:58:03;5.05;;;4.15;;
24233;SDS011;12365;43.554;1.388;2024-01-27T13:00:29;8.88;;;6.57;;
24233;SDS011;12365;43.554;1.388;2024-01-27T13:02:54;5.85;;;3.47;;
24233;SDS011;12365;43.554;1.388;2024-01-27T13:05:19;7.22;;;3.67;;
24233;SDS011;12365;43.554;1.388;2024-01-27T13:07:45;5.10;;;3.95;;
24233;SDS011;12365;43.554;1.388;2024-01-27T13:10:11;8.35;;;6.20;;
24233;SDS011;12365;43.554;1.388;2024-01-27T13:12:36;5.90;;;4.45;;
24233;SDS011;12365;43.554;1.388;2024-01-27T13:15:02;6.18;;;4.75;;
24233;SDS011;12365;43.554;1.388;2024-01-27T13:17:27;5.30;;;3.92;;
24233;SDS011;12365;43.554;1.388;2024-01-27T13:19:52;8.65;;;4.38;;
24233;SDS011;12365;43.554;1.388;2024-01-27T13:22:18;5.47;;;4.10;;
24233;SDS011;12365;43.554;1.388;2024-01-27T13:24:45;5.88;;;4.30;;
24233;SDS011;12365;43.554;1.388;2024-01-27T13:27:10;5.22;;;4.22;;
24233;SDS011;12365;43.554;1.388;2024-01-27T13:29:36;7.45;;;4.80;;
24233;SDS011;12365;43.554;1.388;2024-01-27T13:32:01;6.65;;;4.47;;
24233;SDS011;12365;43.554;1.388;2024-01-27T13:34:27;7.13;;;4.95;;
24233;SDS011;12365;43.554;1.388;2024-01-27T13:36:55;5.00;;;4.40;;
24233;SDS011;12365;43.554;1.388;2024-01-27T13:39:21;7.88;;;4.72;;
24233;SDS011;12365;43.554;1.388;2024-01-27T13:41:47;7.18;;;4.80;;
24233;SDS011;12365;43.554;1.388;2024-01-27T13:44:13;6.85;;;4.38;;
24233;SDS011;12365;43.554;1.388;2024-01-27T13:46:38;8.52;;;4.10;;
24233;SDS011;12365;43.554;1.388;2024-01-27T13:49:04;5.30;;;3.85;;
24233;SDS011;12365;43.554;1.388;2024-01-27T13:51:29;5.32;;;3.95;;
24233;SDS011;12365;43.554;1.388;2024-01-27T13:53:54;5.70;;;4.20;;
24233;SDS011;12365;43.554;1.388;2024-01-27T13:56:20;5.97;;;4.68;;
24233;SDS011;12365;43.554;1.388;2024-01-27T13:58:45;6.03;;;4.50;;
24233;SDS011;12365;43.554;1.388;2024-01-27T14:01:11;5.68;;;4.43;;
24233;SDS011;12365;43.554;1.388;2024-01-27T14:03:37;6.18;;;4.45;;
24233;SDS011;12365;43.554;1.388;2024-01-27T14:06:02;6.30;;;4.50;;
24233;SDS011;12365;43.554;1.388;2024-01-27T14:08:28;6.45;;;4.80;;
24233;SDS011;12365;43.554;1.388;2024-01-27T14:10:53;6.72;;;4.40;;
24233;SDS011;12365;43.554;1.388;2024-01-27T14:13:19;6.82;;;4.85;;
24233;SDS011;12365;43.554;1.388;2024-01-27T14:15:44;8.80;;;4.72;;
24233;SDS011;12365;43.554;1.388;2024-01-27T14:18:10;9.02;;;4.78;;
24233;SDS011;12365;43.554;1.388;2024-01-27T14:20:40;10.32;;;5.00;;
24233;SDS011;12365;43.554;1.388;2024-01-27T14:23:05;6.80;;;4.57;;
24233;SDS011;12365;43.554;1.388;2024-01-27T14:25:31;8.48;;;4.32;;